Viola, AR

9:58 PM CST on December 04, 2016 (GMT -0600)
vps | | Change Station

Elev 781 ft 36.40 °N, 91.99 °W | Updated 33 seconds ago

Clear
Clear
33.2 °F
Feels Like 33 °F
N
0.0
Wind Variable Wind from ENE

Today
High -- | Low -- °F
--% Chance of Precip.
Yesterday
High -- | Low -- °F
Precip. -- in
Pressure 30.05 in
Visibility 10.0 miles
Clouds Clear
Windchill 33 °F
Dew Point 33 °F
Humidity 98%
Rainfall 0.04 in
Snow Depth Not available.
7:04 AM 4:52 PM
Waxing Crescent, 28% visible
METAR KBPK 050353Z AUTO 00000KT 10SM CLR 03/03 A3004 RMK AO2 SLP176 T00330028
Pressure 30.05 in
Visibility 10.0 miles
Clouds Clear
Windchill 33 °F
Dew Point 33 °F
Humidity 98%
Rainfall 0.04 in
Snow Depth Not available.
7:04 AM 4:52 PM
Waxing Crescent, 28% visible
METAR KBPK 050353Z AUTO 00000KT 10SM CLR 03/03 A3004 RMK AO2 SLP176 T00330028

10-Day Weather Forecast

Almanac

Astronomy

Dec. 04, 2016 Rise Set
Actual Time
Civil Twilight
Nautical Twilight
Astronomical Twilight
Moon
Length of Visible Light
Length of Day
Tomorrow will be .
, % of the Moon is Illuminated

Today's Extremes

State Highs State Lows

Community

WunderPhotos

Upload Photos

1,955,757 photos uploaded!

WunderBlog® & News

Nearby

Air Quality

  Air Quality AQ Index Pollutant
Not available.

Snow Depth

Station Depth Elevation

Earthquake Activity

City Distance Mag. Time & Date
Minimum magnitude displayed is 2.5.

Coastal Water Temperatures

Place Temperature

Stations

Nearby Weather Stations

Station Location Temp. Windchill Dew Point Humidity Wind Precip. Elev Updated Type
                   

Watches & Warnings

There are currently no watches in effect.